sensor_id;sensor_type;location;lat;lon;timestamp;temperature;humidity
9907;DHT22;4992;51.628;6.664;2022-08-21T00:01:20;15.50;99.90
9907;DHT22;4992;51.628;6.664;2022-08-21T00:03:47;15.40;99.90
9907;DHT22;4992;51.628;6.664;2022-08-21T00:06:12;15.40;99.90
9907;DHT22;4992;51.628;6.664;2022-08-21T00:08:38;15.30;99.90
9907;DHT22;4992;51.628;6.664;2022-08-21T00:11:04;15.30;99.90
9907;DHT22;4992;51.628;6.664;2022-08-21T00:13:30;15.20;99.90
9907;DHT22;4992;51.628;6.664;2022-08-21T00:15:56;15.20;99.90
9907;DHT22;4992;51.628;6.664;2022-08-21T00:18:22;15.20;99.90
9907;DHT22;4992;51.628;6.664;2022-08-21T00:20:48;15.10;99.90
9907;DHT22;4992;51.628;6.664;2022-08-21T00:23:13;15.10;99.90
9907;DHT22;4992;51.628;6.664;2022-08-21T00:25:41;15.00;99.90
9907;DHT22;4992;51.628;6.664;2022-08-21T00:28:07;15.00;99.90
9907;DHT22;4992;51.628;6.664;2022-08-21T00:30:33;15.00;99.90
9907;DHT22;4992;51.628;6.664;2022-08-21T00:32:59;15.00;99.90
9907;DHT22;4992;51.628;6.664;2022-08-21T00:35:32;14.90;99.90
9907;DHT22;4992;51.628;6.664;2022-08-21T00:37:58;14.80;99.90
9907;DHT22;4992;51.628;6.664;2022-08-21T00:40:29;14.80;99.90
9907;DHT22;4992;51.628;6.664;2022-08-21T00:42:55;14.80;99.90
9907;DHT22;4992;51.628;6.664;2022-08-21T00:45:21;14.70;99.90
9907;DHT22;4992;51.628;6.664;2022-08-21T00:47:47;14.60;99.90
9907;DHT22;4992;51.628;6.664;2022-08-21T00:50:13;14.60;99.90
9907;DHT22;4992;51.628;6.664;2022-08-21T00:52:39;14.60;99.90
9907;DHT22;4992;51.628;6.664;2022-08-21T00:55:09;14.60;99.90
9907;DHT22;4992;51.628;6.664;2022-08-21T00:57:47;14.60;99.90
9907;DHT22;4992;51.628;6.664;2022-08-21T01:00:18;14.60;99.90
9907;DHT22;4992;51.628;6.664;2022-08-21T01:02:44;14.50;99.90
9907;DHT22;4992;51.628;6.664;2022-08-21T01:05:11;14.50;99.90
9907;DHT22;4992;51.628;6.664;2022-08-21T01:07:37;14.40;99.90
9907;DHT22;4992;51.628;6.664;2022-08-21T01:10:05;14.40;99.90
9907;DHT22;4992;51.628;6.664;2022-08-21T01:12:31;14.30;99.90
9907;DHT22;4992;51.628;6.664;2022-08-21T01:14:57;14.30;99.90
9907;DHT22;4992;51.628;6.664;2022-08-21T01:17:24;14.20;99.90
9907;DHT22;4992;51.628;6.664;2022-08-21T01:19:51;14.20;99.90
9907;DHT22;4992;51.628;6.664;2022-08-21T01:22:17;14.20;99.90
9907;DHT22;4992;51.628;6.664;2022-08-21T01:24:43;14.20;99.90
9907;DHT22;4992;51.628;6.664;2022-08-21T01:27:08;14.20;99.90
9907;DHT22;4992;51.628;6.664;2022-08-21T01:29:48;14.20;99.90
9907;DHT22;4992;51.628;6.664;2022-08-21T01:32:18;14.10;99.90
9907;DHT22;4992;51.628;6.664;2022-08-21T01:34:45;14.10;99.90
9907;DHT22;4992;51.628;6.664;2022-08-21T01:37:12;14.10;99.90
9907;DHT22;4992;51.628;6.664;2022-08-21T01:39:38;14.10;99.90
9907;DHT22;4992;51.628;6.664;2022-08-21T01:42:05;14.00;99.90
9907;DHT22;4992;51.628;6.664;2022-08-21T01:44:31;14.00;99.90
9907;DHT22;4992;51.628;6.664;2022-08-21T01:46:59;14.00;99.90
9907;DHT22;4992;51.628;6.664;2022-08-21T01:49:25;14.00;99.90
9907;DHT22;4992;51.628;6.664;2022-08-21T01:51:51;14.00;99.90
9907;DHT22;4992;51.628;6.664;2022-08-21T01:54:17;14.00;99.90
9907;DHT22;4992;51.628;6.664;2022-08-21T01:56:47;13.90;99.90
9907;DHT22;4992;51.628;6.664;2022-08-21T01:59:13;13.90;99.90
9907;DHT22;4992;51.628;6.664;2022-08-21T02:01:38;13.90;99.90
9907;DHT22;4992;51.628;6.664;2022-08-21T02:04:08;13.90;99.90
9907;DHT22;4992;51.628;6.664;2022-08-21T02:06:34;13.80;99.90
9907;DHT22;4992;51.628;6.664;2022-08-21T02:09:04;13.90;99.90
9907;DHT22;4992;51.628;6.664;2022-08-21T02:11:31;13.80;99.90
9907;DHT22;4992;51.628;6.664;2022-08-21T02:13:57;13.80;99.90
9907;DHT22;4992;51.628;6.664;2022-08-21T02:16:23;13.80;99.90
9907;DHT22;4992;51.628;6.664;2022-08-21T02:18:48;13.80;99.90
9907;DHT22;4992;51.628;6.664;2022-08-21T02:21:14;13.70;99.90
9907;DHT22;4992;51.628;6.664;2022-08-21T02:23:39;13.70;99.90
9907;DHT22;4992;51.628;6.664;2022-08-21T02:26:06;13.70;99.90
9907;DHT22;4992;51.628;6.664;2022-08-21T02:28:34;13.70;99.90
9907;DHT22;4992;51.628;6.664;2022-08-21T02:31:00;13.70;99.90
9907;DHT22;4992;51.628;6.664;2022-08-21T02:33:26;13.70;99.90
9907;DHT22;4992;51.628;6.664;2022-08-21T02:35:53;13.70;99.90
9907;DHT22;4992;51.628;6.664;2022-08-21T02:38:22;13.70;99.90
9907;DHT22;4992;51.628;6.664;2022-08-21T02:40:50;13.70;99.90
9907;DHT22;4992;51.628;6.664;2022-08-21T02:43:16;13.80;99.90
9907;DHT22;4992;51.628;6.664;2022-08-21T02:45:42;13.70;99.90
9907;DHT22;4992;51.628;6.664;2022-08-21T02:48:12;13.80;99.90
9907;DHT22;4992;51.628;6.664;2022-08-21T02:50:41;13.80;99.90
9907;DHT22;4992;51.628;6.664;2022-08-21T02:53:08;13.80;99.90
9907;DHT22;4992;51.628;6.664;2022-08-21T02:55:36;13.90;99.90
9907;DHT22;4992;51.628;6.664;2022-08-21T02:58:03;13.90;99.90
9907;DHT22;4992;51.628;6.664;2022-08-21T03:00:31;13.90;99.90
9907;DHT22;4992;51.628;6.664;2022-08-21T03:02:58;14.00;99.90
9907;DHT22;4992;51.628;6.664;2022-08-21T03:05:25;14.10;99.90
9907;DHT22;4992;51.628;6.664;2022-08-21T03:07:51;14.10;99.90
9907;DHT22;4992;51.628;6.664;2022-08-21T03:10:18;14.10;99.90
9907;DHT22;4992;51.628;6.664;2022-08-21T03:12:45;14.10;99.90
9907;DHT22;4992;51.628;6.664;2022-08-21T03:15:14;14.10;99.90
9907;DHT22;4992;51.628;6.664;2022-08-21T03:17:40;14.10;99.90
9907;DHT22;4992;51.628;6.664;2022-08-21T03:20:07;14.10;99.90
9907;DHT22;4992;51.628;6.664;2022-08-21T03:22:32;14.10;99.90
9907;DHT22;4992;51.628;6.664;2022-08-21T03:24:59;14.20;99.90
9907;DHT22;4992;51.628;6.664;2022-08-21T03:27:25;14.20;99.90
9907;DHT22;4992;51.628;6.664;2022-08-21T03:29:52;14.20;99.90
9907;DHT22;4992;51.628;6.664;2022-08-21T03:32:18;14.20;99.90
9907;DHT22;4992;51.628;6.664;2022-08-21T03:34:45;14.10;99.90
9907;DHT22;4992;51.628;6.664;2022-08-21T03:37:11;14.20;99.90
9907;DHT22;4992;51.628;6.664;2022-08-21T03:39:37;14.10;99.90
9907;DHT22;4992;51.628;6.664;2022-08-21T03:42:03;14.10;99.90
9907;DHT22;4992;51.628;6.664;2022-08-21T03:44:30;14.10;99.90
9907;DHT22;4992;51.628;6.664;2022-08-21T03:46:56;14.00;99.90
9907;DHT22;4992;51.628;6.664;2022-08-21T03:49:22;14.00;99.90
9907;DHT22;4992;51.628;6.664;2022-08-21T03:51:48;14.00;99.90
9907;DHT22;4992;51.628;6.664;2022-08-21T03:54:14;14.00;99.90
9907;DHT22;4992;51.628;6.664;2022-08-21T03:56:39;14.00;99.90
9907;DHT22;4992;51.628;6.664;2022-08-21T03:59:06;13.90;99.90
9907;DHT22;4992;51.628;6.664;2022-08-21T04:01:32;13.90;99.90
9907;DHT22;4992;51.628;6.664;2022-08-21T04:03:58;13.90;99.90
9907;DHT22;4992;51.628;6.664;2022-08-21T04:06:23;13.90;99.90
9907;DHT22;4992;51.628;6.664;2022-08-21T04:08:50;13.90;99.90
9907;DHT22;4992;51.628;6.664;2022-08-21T04:11:15;14.00;99.90
9907;DHT22;4992;51.628;6.664;2022-08-21T04:13:41;14.00;99.90
9907;DHT22;4992;51.628;6.664;2022-08-21T04:16:07;14.00;99.90
9907;DHT22;4992;51.628;6.664;2022-08-21T04:18:33;14.00;99.90
9907;DHT22;4992;51.628;6.664;2022-08-21T04:20:59;14.00;99.90
9907;DHT22;4992;51.628;6.664;2022-08-21T04:23:26;14.00;99.90
9907;DHT22;4992;51.628;6.664;2022-08-21T04:25:53;14.00;99.90
9907;DHT22;4992;51.628;6.664;2022-08-21T04:28:19;14.10;99.90
9907;DHT22;4992;51.628;6.664;2022-08-21T04:30:45;14.00;99.90
9907;DHT22;4992;51.628;6.664;2022-08-21T04:33:11;14.00;99.90
9907;DHT22;4992;51.628;6.664;2022-08-21T04:35:36;14.00;99.90
9907;DHT22;4992;51.628;6.664;2022-08-21T04:38:02;14.00;99.90
9907;DHT22;4992;51.628;6.664;2022-08-21T04:40:27;14.00;99.90
9907;DHT22;4992;51.628;6.664;2022-08-21T04:43:00;14.10;99.90
9907;DHT22;4992;51.628;6.664;2022-08-21T04:45:29;14.10;99.90
9907;DHT22;4992;51.628;6.664;2022-08-21T04:47:57;14.20;99.90
9907;DHT22;4992;51.628;6.664;2022-08-21T04:50:26;14.20;99.90
9907;DHT22;4992;51.628;6.664;2022-08-21T04:52:53;14.30;99.90
9907;DHT22;4992;51.628;6.664;2022-08-21T04:55:20;14.30;99.90
9907;DHT22;4992;51.628;6.664;2022-08-21T04:57:46;14.40;99.90
9907;DHT22;4992;51.628;6.664;2022-08-21T05:00:13;14.40;99.90
9907;DHT22;4992;51.628;6.664;2022-08-21T05:02:40;14.50;99.90
9907;DHT22;4992;51.628;6.664;2022-08-21T05:05:06;14.50;99.90
9907;DHT22;4992;51.628;6.664;2022-08-21T05:07:32;14.50;99.90
9907;DHT22;4992;51.628;6.664;2022-08-21T05:10:00;14.60;99.90
9907;DHT22;4992;51.628;6.664;2022-08-21T05:12:26;14.60;99.90
9907;DHT22;4992;51.628;6.664;2022-08-21T05:14:52;14.60;99.90
9907;DHT22;4992;51.628;6.664;2022-08-21T05:17:17;14.60;99.90
9907;DHT22;4992;51.628;6.664;2022-08-21T05:19:43;14.70;99.90
9907;DHT22;4992;51.628;6.664;2022-08-21T05:22:08;14.60;99.90
9907;DHT22;4992;51.628;6.664;2022-08-21T05:24:34;14.70;99.90
9907;DHT22;4992;51.628;6.664;2022-08-21T05:27:00;14.70;99.90
9907;DHT22;4992;51.628;6.664;2022-08-21T05:29:25;14.70;99.90
9907;DHT22;4992;51.628;6.664;2022-08-21T05:31:52;14.80;99.90
9907;DHT22;4992;51.628;6.664;2022-08-21T05:34:21;14.80;99.90
9907;DHT22;4992;51.628;6.664;2022-08-21T05:36:47;14.90;99.90
9907;DHT22;4992;51.628;6.664;2022-08-21T05:39:13;14.90;99.90
9907;DHT22;4992;51.628;6.664;2022-08-21T05:41:39;15.00;99.90
9907;DHT22;4992;51.628;6.664;2022-08-21T05:44:05;15.00;99.90
9907;DHT22;4992;51.628;6.664;2022-08-21T05:46:30;15.10;99.90
9907;DHT22;4992;51.628;6.664;2022-08-21T05:48:56;15.10;99.90
9907;DHT22;4992;51.628;6.664;2022-08-21T05:51:21;15.20;99.90
9907;DHT22;4992;51.628;6.664;2022-08-21T05:53:47;15.30;99.90
9907;DHT22;4992;51.628;6.664;2022-08-21T05:56:13;15.40;99.90
9907;DHT22;4992;51.628;6.664;2022-08-21T05:58:39;15.50;99.90
9907;DHT22;4992;51.628;6.664;2022-08-21T06:01:05;15.50;99.90
9907;DHT22;4992;51.628;6.664;2022-08-21T06:03:34;15.70;99.90
9907;DHT22;4992;51.628;6.664;2022-08-21T06:06:01;15.80;99.90
9907;DHT22;4992;51.628;6.664;2022-08-21T06:08:27;15.90;99.90
9907;DHT22;4992;51.628;6.664;2022-08-21T06:10:55;16.10;99.90
9907;DHT22;4992;51.628;6.664;2022-08-21T06:13:22;16.20;99.90
9907;DHT22;4992;51.628;6.664;2022-08-21T06:15:49;16.30;99.90
9907;DHT22;4992;51.628;6.664;2022-08-21T06:18:15;16.50;99.90
9907;DHT22;4992;51.628;6.664;2022-08-21T06:20:41;16.60;99.90
9907;DHT22;4992;51.628;6.664;2022-08-21T06:23:06;16.70;99.90
9907;DHT22;4992;51.628;6.664;2022-08-21T06:25:32;16.80;99.90
9907;DHT22;4992;51.628;6.664;2022-08-21T06:28:06;16.90;99.90
9907;DHT22;4992;51.628;6.664;2022-08-21T06:30:32;17.00;99.90
9907;DHT22;4992;51.628;6.664;2022-08-21T06:32:57;17.10;99.90
9907;DHT22;4992;51.628;6.664;2022-08-21T06:35:23;17.20;99.90
9907;DHT22;4992;51.628;6.664;2022-08-21T06:37:50;17.30;99.90
9907;DHT22;4992;51.628;6.664;2022-08-21T06:40:16;17.40;99.90
9907;DHT22;4992;51.628;6.664;2022-08-21T06:42:42;17.50;99.90
9907;DHT22;4992;51.628;6.664;2022-08-21T06:45:08;17.60;99.90
9907;DHT22;4992;51.628;6.664;2022-08-21T06:47:33;17.70;99.90
9907;DHT22;4992;51.628;6.664;2022-08-21T06:49:59;17.80;99.90
9907;DHT22;4992;51.628;6.664;2022-08-21T06:52:24;17.90;99.90
9907;DHT22;4992;51.628;6.664;2022-08-21T06:54:50;18.00;99.90
9907;DHT22;4992;51.628;6.664;2022-08-21T06:57:16;18.10;99.90
9907;DHT22;4992;51.628;6.664;2022-08-21T06:59:41;18.10;99.90
9907;DHT22;4992;51.628;6.664;2022-08-21T07:02:07;18.20;99.90
9907;DHT22;4992;51.628;6.664;2022-08-21T07:04:33;18.30;99.90
9907;DHT22;4992;51.628;6.664;2022-08-21T07:06:59;18.30;99.90
9907;DHT22;4992;51.628;6.664;2022-08-21T07:09:24;18.50;99.90
9907;DHT22;4992;51.628;6.664;2022-08-21T07:11:52;18.50;99.90
9907;DHT22;4992;51.628;6.664;2022-08-21T07:14:18;18.50;99.90
9907;DHT22;4992;51.628;6.664;2022-08-21T07:16:44;18.60;99.90
9907;DHT22;4992;51.628;6.664;2022-08-21T07:19:09;18.60;99.90
9907;DHT22;4992;51.628;6.664;2022-08-21T07:21:35;18.60;99.90
9907;DHT22;4992;51.628;6.664;2022-08-21T07:24:00;18.80;99.90
9907;DHT22;4992;51.628;6.664;2022-08-21T07:26:26;18.80;99.90
9907;DHT22;4992;51.628;6.664;2022-08-21T07:28:52;18.90;99.90
9907;DHT22;4992;51.628;6.664;2022-08-21T07:31:20;18.90;99.90
9907;DHT22;4992;51.628;6.664;2022-08-21T07:33:46;18.90;99.90
9907;DHT22;4992;51.628;6.664;2022-08-21T07:36:13;19.00;99.90
9907;DHT22;4992;51.628;6.664;2022-08-21T07:38:39;19.20;99.90
9907;DHT22;4992;51.628;6.664;2022-08-21T07:41:17;19.20;99.90
9907;DHT22;4992;51.628;6.664;2022-08-21T07:43:43;19.20;99.90
9907;DHT22;4992;51.628;6.664;2022-08-21T07:46:09;19.20;99.90
9907;DHT22;4992;51.628;6.664;2022-08-21T07:48:35;19.20;99.90
9907;DHT22;4992;51.628;6.664;2022-08-21T07:51:04;19.30;99.90
9907;DHT22;4992;51.628;6.664;2022-08-21T07:53:31;19.40;99.90
9907;DHT22;4992;51.628;6.664;2022-08-21T07:55:59;19.50;99.90
9907;DHT22;4992;51.628;6.664;2022-08-21T07:58:25;19.60;99.90
9907;DHT22;4992;51.628;6.664;2022-08-21T08:00:51;19.80;99.90
9907;DHT22;4992;51.628;6.664;2022-08-21T08:03:17;19.90;99.90
9907;DHT22;4992;51.628;6.664;2022-08-21T08:05:42;20.10;99.90
9907;DHT22;4992;51.628;6.664;2022-08-21T08:08:08;20.20;99.90
9907;DHT22;4992;51.628;6.664;2022-08-21T08:10:35;20.30;99.90
9907;DHT22;4992;51.628;6.664;2022-08-21T08:13:01;20.30;99.90
9907;DHT22;4992;51.628;6.664;2022-08-21T08:15:27;20.30;99.90
9907;DHT22;4992;51.628;6.664;2022-08-21T08:17:54;20.40;99.90
9907;DHT22;4992;51.628;6.664;2022-08-21T08:20:20;20.50;99.90
9907;DHT22;4992;51.628;6.664;2022-08-21T08:22:48;20.50;99.90
9907;DHT22;4992;51.628;6.664;2022-08-21T08:25:15;20.60;99.90
9907;DHT22;4992;51.628;6.664;2022-08-21T08:27:41;20.70;99.90
9907;DHT22;4992;51.628;6.664;2022-08-21T08:30:09;20.80;99.90
9907;DHT22;4992;51.628;6.664;2022-08-21T08:32:36;20.80;99.90
9907;DHT22;4992;51.628;6.664;2022-08-21T08:35:03;21.00;99.90
9907;DHT22;4992;51.628;6.664;2022-08-21T08:37:29;21.20;99.90
9907;DHT22;4992;51.628;6.664;2022-08-21T08:39:54;21.40;99.90
9907;DHT22;4992;51.628;6.664;2022-08-21T08:44:46;21.70;99.90
9907;DHT22;4992;51.628;6.664;2022-08-21T08:47:14;21.80;99.90
9907;DHT22;4992;51.628;6.664;2022-08-21T08:49:53;21.90;99.90
9907;DHT22;4992;51.628;6.664;2022-08-21T08:52:20;21.90;99.90
9907;DHT22;4992;51.628;6.664;2022-08-21T08:54:55;21.80;99.90
9907;DHT22;4992;51.628;6.664;2022-08-21T08:57:25;21.70;99.90
9907;DHT22;4992;51.628;6.664;2022-08-21T08:59:53;21.80;99.90
9907;DHT22;4992;51.628;6.664;2022-08-21T09:02:21;21.90;99.90
9907;DHT22;4992;51.628;6.664;2022-08-21T09:04:50;22.10;99.90
9907;DHT22;4992;51.628;6.664;2022-08-21T09:10:17;22.70;99.90
9907;DHT22;4992;51.628;6.664;2022-08-21T09:15:55;23.40;99.90
9907;DHT22;4992;51.628;6.664;2022-08-21T09:21:30;23.70;99.90
9907;DHT22;4992;51.628;6.664;2022-08-21T09:24:18;23.70;99.90
9907;DHT22;4992;51.628;6.664;2022-08-21T09:26:57;23.80;99.90
9907;DHT22;4992;51.628;6.664;2022-08-21T09:29:26;23.90;99.90
9907;DHT22;4992;51.628;6.664;2022-08-21T09:31:55;24.10;99.90
9907;DHT22;4992;51.628;6.664;2022-08-21T09:34:26;24.30;99.90
9907;DHT22;4992;51.628;6.664;2022-08-21T09:36:52;24.50;99.90
9907;DHT22;4992;51.628;6.664;2022-08-21T09:39:32;24.70;99.90
9907;DHT22;4992;51.628;6.664;2022-08-21T09:42:05;24.90;99.90
9907;DHT22;4992;51.628;6.664;2022-08-21T09:44:33;25.00;99.90
9907;DHT22;4992;51.628;6.664;2022-08-21T09:46:59;24.90;99.90
9907;DHT22;4992;51.628;6.664;2022-08-21T09:49:34;24.80;99.90
9907;DHT22;4992;51.628;6.664;2022-08-21T09:52:02;24.80;99.90
9907;DHT22;4992;51.628;6.664;2022-08-21T09:54:33;24.90;99.90
9907;DHT22;4992;51.628;6.664;2022-08-21T09:59:49;25.40;99.90
9907;DHT22;4992;51.628;6.664;2022-08-21T10:02:27;25.70;99.90
9907;DHT22;4992;51.628;6.664;2022-08-21T10:04:58;26.00;99.90
9907;DHT22;4992;51.628;6.664;2022-08-21T10:07:27;26.50;99.90
9907;DHT22;4992;51.628;6.664;2022-08-21T10:10:15;26.80;99.90
9907;DHT22;4992;51.628;6.664;2022-08-21T10:22:02;27.70;99.90
9907;DHT22;4992;51.628;6.664;2022-08-21T10:30:02;28.60;99.90
9907;DHT22;4992;51.628;6.664;2022-08-21T10:35:24;28.90;99.90
9907;DHT22;4992;51.628;6.664;2022-08-21T10:40:42;28.70;99.90
9907;DHT22;4992;51.628;6.664;2022-08-21T10:43:35;28.90;99.90
9907;DHT22;4992;51.628;6.664;2022-08-21T10:46:25;29.30;99.90
9907;DHT22;4992;51.628;6.664;2022-08-21T10:51:53;29.50;99.90
9907;DHT22;4992;51.628;6.664;2022-08-21T10:57:19;29.50;99.90
9907;DHT22;4992;51.628;6.664;2022-08-21T10:59:55;29.90;99.90
9907;DHT22;4992;51.628;6.664;2022-08-21T11:02:28;30.20;99.90
9907;DHT22;4992;51.628;6.664;2022-08-21T11:05:16;30.50;99.90
9907;DHT22;4992;51.628;6.664;2022-08-21T11:07:57;30.70;99.90
9907;DHT22;4992;51.628;6.664;2022-08-21T11:10:47;30.70;99.90
9907;DHT22;4992;51.628;6.664;2022-08-21T11:13:25;30.90;99.90
9907;DHT22;4992;51.628;6.664;2022-08-21T11:16:03;31.00;99.90
9907;DHT22;4992;51.628;6.664;2022-08-21T11:18:46;30.70;99.90
9907;DHT22;4992;51.628;6.664;2022-08-21T11:27:07;30.00;99.90
9907;DHT22;4992;51.628;6.664;2022-08-21T11:29:33;29.80;99.90
9907;DHT22;4992;51.628;6.664;2022-08-21T11:37:45;29.40;99.90
9907;DHT22;4992;51.628;6.664;2022-08-21T11:46:26;30.80;99.90
9907;DHT22;4992;51.628;6.664;2022-08-21T11:58:01;32.00;99.90
9907;DHT22;4992;51.628;6.664;2022-08-21T12:00:34;31.70;99.90
9907;DHT22;4992;51.628;6.664;2022-08-21T12:03:16;31.70;99.90
9907;DHT22;4992;51.628;6.664;2022-08-21T12:05:54;32.10;99.90
9907;DHT22;4992;51.628;6.664;2022-08-21T12:08:35;32.60;99.90
9907;DHT22;4992;51.628;6.664;2022-08-21T12:13:32;33.70;99.90
9907;DHT22;4992;51.628;6.664;2022-08-21T12:16:15;34.40;99.90
9907;DHT22;4992;51.628;6.664;2022-08-21T12:19:03;34.80;98.10
9907;DHT22;4992;51.628;6.664;2022-08-21T12:21:29;35.20;97.60
9907;DHT22;4992;51.628;6.664;2022-08-21T12:26:53;35.10;95.10
9907;DHT22;4992;51.628;6.664;2022-08-21T12:29:36;35.10;95.10
9907;DHT22;4992;51.628;6.664;2022-08-21T12:34:48;33.70;93.50
9907;DHT22;4992;51.628;6.664;2022-08-21T12:39:47;32.40;95.40
9907;DHT22;4992;51.628;6.664;2022-08-21T12:42:20;32.30;95.70
9907;DHT22;4992;51.628;6.664;2022-08-21T12:44:54;32.00;95.60
9907;DHT22;4992;51.628;6.664;2022-08-21T12:47:34;31.20;96.10
9907;DHT22;4992;51.628;6.664;2022-08-21T12:50:06;30.40;97.10
9907;DHT22;4992;51.628;6.664;2022-08-21T12:52:40;30.50;97.40
9907;DHT22;4992;51.628;6.664;2022-08-21T12:55:12;31.30;97.00
9907;DHT22;4992;51.628;6.664;2022-08-21T12:57:40;32.00;95.30
9907;DHT22;4992;51.628;6.664;2022-08-21T13:00:09;32.10;95.30
9907;DHT22;4992;51.628;6.664;2022-08-21T13:02:42;32.30;95.00
9907;DHT22;4992;51.628;6.664;2022-08-21T13:05:14;31.90;94.60
9907;DHT22;4992;51.628;6.664;2022-08-21T13:07:46;31.80;94.90
9907;DHT22;4992;51.628;6.664;2022-08-21T13:10:22;31.60;94.70
9907;DHT22;4992;51.628;6.664;2022-08-21T13:12:48;31.30;95.30
9907;DHT22;4992;51.628;6.664;2022-08-21T13:15:15;30.90;95.20
9907;DHT22;4992;51.628;6.664;2022-08-21T13:17:48;30.70;94.50
9907;DHT22;4992;51.628;6.664;2022-08-21T13:22:46;31.50;95.40
9907;DHT22;4992;51.628;6.664;2022-08-21T13:25:16;32.00;95.90
9907;DHT22;4992;51.628;6.664;2022-08-21T13:27:44;32.30;94.70
9907;DHT22;4992;51.628;6.664;2022-08-21T13:30:18;32.70;94.80
9907;DHT22;4992;51.628;6.664;2022-08-21T13:32:49;33.50;94.40
9907;DHT22;4992;51.628;6.664;2022-08-21T13:35:21;33.80;92.80
9907;DHT22;4992;51.628;6.664;2022-08-21T13:37:48;34.10;93.20
9907;DHT22;4992;51.628;6.664;2022-08-21T13:40:18;34.20;91.70
9907;DHT22;4992;51.628;6.664;2022-08-21T13:42:47;33.70;91.70
9907;DHT22;4992;51.628;6.664;2022-08-21T13:45:16;33.20;90.80
9907;DHT22;4992;51.628;6.664;2022-08-21T13:47:43;32.20;92.30
9907;DHT22;4992;51.628;6.664;2022-08-21T13:50:12;31.30;92.50
9907;DHT22;4992;51.628;6.664;2022-08-21T13:52:56;30.40;93.10
9907;DHT22;4992;51.628;6.664;2022-08-21T13:55:22;29.70;94.10
9907;DHT22;4992;51.628;6.664;2022-08-21T13:57:58;29.10;94.80
9907;DHT22;4992;51.628;6.664;2022-08-21T14:00:29;28.60;95.20
9907;DHT22;4992;51.628;6.664;2022-08-21T14:03:03;28.30;95.30
9907;DHT22;4992;51.628;6.664;2022-08-21T14:05:32;28.60;96.10
9907;DHT22;4992;51.628;6.664;2022-08-21T14:10:49;30.40;95.30
9907;DHT22;4992;51.628;6.664;2022-08-21T14:13:35;31.10;94.60
9907;DHT22;4992;51.628;6.664;2022-08-21T14:16:09;30.90;94.20
9907;DHT22;4992;51.628;6.664;2022-08-21T14:18:44;31.30;94.20
9907;DHT22;4992;51.628;6.664;2022-08-21T14:21:10;32.00;94.50
9907;DHT22;4992;51.628;6.664;2022-08-21T14:23:37;32.20;93.70
9907;DHT22;4992;51.628;6.664;2022-08-21T14:26:05;32.70;93.70
9907;DHT22;4992;51.628;6.664;2022-08-21T14:28:32;32.80;92.60
9907;DHT22;4992;51.628;6.664;2022-08-21T14:31:20;33.10;92.60
9907;DHT22;4992;51.628;6.664;2022-08-21T14:33:46;33.40;92.40
9907;DHT22;4992;51.628;6.664;2022-08-21T14:36:12;33.40;91.60
9907;DHT22;4992;51.628;6.664;2022-08-21T14:38:40;33.60;91.50
9907;DHT22;4992;51.628;6.664;2022-08-21T14:41:16;34.00;90.50
9907;DHT22;4992;51.628;6.664;2022-08-21T14:43:44;34.50;91.10
9907;DHT22;4992;51.628;6.664;2022-08-21T14:46:11;34.90;89.20
9907;DHT22;4992;51.628;6.664;2022-08-21T14:48:37;35.30;86.80
9907;DHT22;4992;51.628;6.664;2022-08-21T14:51:03;35.50;86.40
9907;DHT22;4992;51.628;6.664;2022-08-21T14:53:29;35.70;85.90
9907;DHT22;4992;51.628;6.664;2022-08-21T14:55:54;35.70;85.00
9907;DHT22;4992;51.628;6.664;2022-08-21T14:58:37;35.60;84.50
9907;DHT22;4992;51.628;6.664;2022-08-21T15:01:06;35.70;84.20
9907;DHT22;4992;51.628;6.664;2022-08-21T15:03:32;35.10;83.60
9907;DHT22;4992;51.628;6.664;2022-08-21T15:05:58;34.50;83.50
9907;DHT22;4992;51.628;6.664;2022-08-21T15:08:24;34.30;84.40
9907;DHT22;4992;51.628;6.664;2022-08-21T15:10:51;34.10;84.50
9907;DHT22;4992;51.628;6.664;2022-08-21T15:13:18;33.20;82.80
9907;DHT22;4992;51.628;6.664;2022-08-21T15:15:45;32.50;83.80
9907;DHT22;4992;51.628;6.664;2022-08-21T15:18:11;32.50;85.60
9907;DHT22;4992;51.628;6.664;2022-08-21T15:20:37;33.10;85.00
9907;DHT22;4992;51.628;6.664;2022-08-21T15:23:04;33.20;84.80
9907;DHT22;4992;51.628;6.664;2022-08-21T15:25:30;33.40;84.90
9907;DHT22;4992;51.628;6.664;2022-08-21T15:27:56;33.20;84.30
9907;DHT22;4992;51.628;6.664;2022-08-21T15:30:22;32.50;82.50
9907;DHT22;4992;51.628;6.664;2022-08-21T15:32:47;31.90;81.70
9907;DHT22;4992;51.628;6.664;2022-08-21T15:35:13;30.90;83.10
9907;DHT22;4992;51.628;6.664;2022-08-21T15:37:39;30.10;85.60
9907;DHT22;4992;51.628;6.664;2022-08-21T15:40:05;29.40;85.60
9907;DHT22;4992;51.628;6.664;2022-08-21T15:42:32;28.70;86.60
9907;DHT22;4992;51.628;6.664;2022-08-21T15:44:58;28.50;85.20
9907;DHT22;4992;51.628;6.664;2022-08-21T15:47:29;28.20;86.40
9907;DHT22;4992;51.628;6.664;2022-08-21T15:49:55;28.10;86.20
9907;DHT22;4992;51.628;6.664;2022-08-21T15:52:22;28.10;90.10
9907;DHT22;4992;51.628;6.664;2022-08-21T15:54:48;28.00;89.40
9907;DHT22;4992;51.628;6.664;2022-08-21T15:57:18;28.00;90.60
9907;DHT22;4992;51.628;6.664;2022-08-21T15:59:50;27.90;90.30
9907;DHT22;4992;51.628;6.664;2022-08-21T16:02:24;27.70;90.00
9907;DHT22;4992;51.628;6.664;2022-08-21T16:04:50;27.50;89.30
9907;DHT22;4992;51.628;6.664;2022-08-21T16:07:16;27.20;90.20
9907;DHT22;4992;51.628;6.664;2022-08-21T16:09:42;27.00;90.30
9907;DHT22;4992;51.628;6.664;2022-08-21T16:12:10;26.90;90.40
9907;DHT22;4992;51.628;6.664;2022-08-21T16:14:37;26.80;90.70
9907;DHT22;4992;51.628;6.664;2022-08-21T16:17:07;26.70;90.70
9907;DHT22;4992;51.628;6.664;2022-08-21T16:19:33;26.70;91.40
9907;DHT22;4992;51.628;6.664;2022-08-21T16:21:59;26.70;91.70
9907;DHT22;4992;51.628;6.664;2022-08-21T16:24:24;26.60;90.40
9907;DHT22;4992;51.628;6.664;2022-08-21T16:26:50;26.40;90.60
9907;DHT22;4992;51.628;6.664;2022-08-21T16:29:17;26.30;91.10
9907;DHT22;4992;51.628;6.664;2022-08-21T16:31:43;26.20;90.60
9907;DHT22;4992;51.628;6.664;2022-08-21T16:34:14;26.20;89.80
9907;DHT22;4992;51.628;6.664;2022-08-21T16:36:40;26.00;89.30
9907;DHT22;4992;51.628;6.664;2022-08-21T16:39:05;25.90;90.20
9907;DHT22;4992;51.628;6.664;2022-08-21T16:41:33;25.80;91.10
9907;DHT22;4992;51.628;6.664;2022-08-21T16:44:00;25.70;91.70
9907;DHT22;4992;51.628;6.664;2022-08-21T16:46:28;25.60;91.40
9907;DHT22;4992;51.628;6.664;2022-08-21T16:48:55;25.50;91.40
9907;DHT22;4992;51.628;6.664;2022-08-21T16:51:20;25.40;91.20
9907;DHT22;4992;51.628;6.664;2022-08-21T16:53:46;25.20;91.90
9907;DHT22;4992;51.628;6.664;2022-08-21T16:56:13;25.20;93.00
9907;DHT22;4992;51.628;6.664;2022-08-21T16:58:44;25.10;93.10
9907;DHT22;4992;51.628;6.664;2022-08-21T17:01:13;25.00;93.40
9907;DHT22;4992;51.628;6.664;2022-08-21T17:03:45;24.90;92.80
9907;DHT22;4992;51.628;6.664;2022-08-21T17:06:12;24.80;93.70
9907;DHT22;4992;51.628;6.664;2022-08-21T17:08:38;24.60;94.30
9907;DHT22;4992;51.628;6.664;2022-08-21T17:11:10;24.50;94.50
9907;DHT22;4992;51.628;6.664;2022-08-21T17:13:37;24.40;94.40
9907;DHT22;4992;51.628;6.664;2022-08-21T17:16:03;24.30;95.10
9907;DHT22;4992;51.628;6.664;2022-08-21T17:18:28;24.20;95.00
9907;DHT22;4992;51.628;6.664;2022-08-21T17:20:54;24.10;95.00
9907;DHT22;4992;51.628;6.664;2022-08-21T17:23:20;24.00;95.90
9907;DHT22;4992;51.628;6.664;2022-08-21T17:25:50;24.00;97.30
9907;DHT22;4992;51.628;6.664;2022-08-21T17:28:21;23.90;98.60
9907;DHT22;4992;51.628;6.664;2022-08-21T17:30:48;23.90;99.90
9907;DHT22;4992;51.628;6.664;2022-08-21T17:33:16;23.80;99.80